Time;durP1;ratioP1;P1;durP2;ratioP2;P2;SDS_P1;SDS_P2;PMS_P1;PMS_P2;Temp;Humidity;BMP_temperature;BMP_pressure;BME280_temperature;BME280_humidity;BME280_pressure;Samples;Min_cycle;Max_cycle;Signal;HPM_P1;HPM_P2
2023/12/29 00:00:33;;;;;;;12.75;11.75;;;9.40;99.90;;;;;;5033198;28;20045;-79
2023/12/29 00:02:59;;;;;;;18.33;17.17;;;9.40;99.90;;;;;;5033140;28;20073;-77
2023/12/29 00:05:25;;;;;;;7.50;6.43;;;9.40;99.90;;;;;;5032496;28;20089;-79
2023/12/29 00:07:50;;;;;;;10.95;10.18;;;9.40;99.90;;;;;;5032984;28;20099;-79
2023/12/29 00:10:16;;;;;;;6.25;5.43;;;9.40;99.90;;;;;;5032583;28;20136;-80
2023/12/29 00:12:42;;;;;;;9.60;5.85;;;9.40;99.90;;;;;;5033369;28;20076;-78
2023/12/29 00:15:08;;;;;;;10.32;4.07;;;9.40;99.90;;;;;;5033190;28;20135;-77
2023/12/29 00:17:37;;;;;;;8.13;4.28;;;9.40;99.90;;;;;;5032206;28;20049;-78
2023/12/29 00:20:04;;;;;;;6.43;4.72;;;9.40;99.90;;;;;;5032529;28;20049;-79
2023/12/29 00:22:30;;;;;;;8.32;7.72;;;9.50;99.90;;;;;;5033221;28;20049;-79
2023/12/29 00:24:55;;;;;;;22.08;20.48;;;9.50;99.90;;;;;;5033396;28;20072;-79
2023/12/29 00:27:22;;;;;;;7.35;6.68;;;9.50;99.90;;;;;;5033512;28;20472;-78
2023/12/29 00:29:47;;;;;;;6.97;5.57;;;9.50;99.90;;;;;;5033045;28;20107;-78
2023/12/29 00:32:13;;;;;;;5.97;5.15;;;9.50;99.90;;;;;;5031860;28;20438;-78
2023/12/29 00:34:39;;;;;;;8.13;7.35;;;9.50;99.90;;;;;;5033549;28;20070;-79
2023/12/29 00:37:05;;;;;;;10.60;9.77;;;9.60;99.90;;;;;;5033074;28;20049;-80
2023/12/29 00:39:38;;;;;;;14.52;13.52;;;9.50;99.90;;;;;;5032992;28;20085;-79
2023/12/29 00:42:04;;;;;;;7.93;5.78;;;9.30;99.90;;;;;;5032101;28;20087;-78
2023/12/29 00:44:30;;;;;;;6.30;5.57;;;9.10;99.90;;;;;;5033362;28;20506;-78
2023/12/29 00:46:56;;;;;;;6.78;6.22;;;9.10;99.90;;;;;;5031797;28;20046;-78
2023/12/29 00:49:21;;;;;;;9.55;8.75;;;9.00;99.90;;;;;;5031867;28;20049;-78
2023/12/29 00:51:48;;;;;;;11.05;5.03;;;9.00;99.90;;;;;;5035543;28;20049;-78
2023/12/29 00:54:14;;;;;;;6.85;4.53;;;9.00;99.90;;;;;;5036052;28;20474;-78
2023/12/29 00:56:39;;;;;;;10.52;6.35;;;9.00;99.90;;;;;;5036502;28;20055;-79
2023/12/29 00:59:05;;;;;;;9.77;4.47;;;9.10;99.90;;;;;;5035245;28;20132;-78
2023/12/29 01:01:35;;;;;;;8.10;7.40;;;9.10;99.90;;;;;;5036962;28;20046;-78
2023/12/29 01:04:01;;;;;;;7.78;4.88;;;9.10;99.90;;;;;;5035808;28;20128;-78
2023/12/29 01:06:26;;;;;;;10.07;8.32;;;9.10;99.90;;;;;;5035482;28;20464;-78
2023/12/29 01:08:52;;;;;;;8.82;7.15;;;9.10;99.90;;;;;;5035732;28;20145;-77
2023/12/29 01:11:18;;;;;;;6.80;4.75;;;9.10;99.90;;;;;;5036336;28;20049;-79
2023/12/29 01:13:43;;;;;;;8.63;7.30;;;9.00;99.90;;;;;;5036422;28;20041;-78
2023/12/29 01:16:09;;;;;;;4.57;4.10;;;8.90;99.90;;;;;;5036266;28;20045;-80
2023/12/29 01:18:35;;;;;;;9.45;5.32;;;8.90;99.90;;;;;;5036252;28;20041;-79
2023/12/29 01:21:00;;;;;;;10.00;5.40;;;8.80;99.90;;;;;;5036142;28;20057;-78
2023/12/29 01:23:26;;;;;;;8.45;4.75;;;8.80;99.90;;;;;;5036095;28;20136;-80
2023/12/29 01:25:51;;;;;;;9.18;5.72;;;8.80;99.90;;;;;;5035158;28;20054;-77
2023/12/29 01:28:17;;;;;;;7.97;6.45;;;8.80;99.90;;;;;;5034979;28;20103;-79
2023/12/29 01:30:43;;;;;;;9.60;8.52;;;8.90;99.90;;;;;;5035914;28;20088;-79
2023/12/29 01:33:08;;;;;;;11.02;5.85;;;8.90;99.90;;;;;;5034723;28;20100;-78
2023/12/29 01:35:34;;;;;;;8.70;5.40;;;8.90;99.90;;;;;;5035880;28;20081;-78
2023/12/29 01:38:00;;;;;;;7.30;5.90;;;8.80;99.90;;;;;;5035894;28;20387;-78
2023/12/29 01:40:26;;;;;;;7.57;5.40;;;8.80;99.90;;;;;;5035825;28;20045;-78
2023/12/29 01:42:52;;;;;;;14.23;5.35;;;8.80;99.90;;;;;;5036577;28;20050;-78
2023/12/29 01:45:25;;;;;;;6.38;5.88;;;8.80;99.90;;;;;;5017955;28;20405;-78
2023/12/29 01:47:52;;;;;;;8.38;4.82;;;8.80;99.90;;;;;;5034175;28;20057;-77
2023/12/29 01:50:22;;;;;;;5.97;5.38;;;8.80;99.90;;;;;;5035608;28;20045;-80
2023/12/29 01:52:50;;;;;;;5.65;4.88;;;8.80;99.90;;;;;;5034607;28;20389;-77
2023/12/29 01:55:19;;;;;;;10.05;4.28;;;8.90;99.90;;;;;;5035408;28;20064;-77
2023/12/29 01:57:46;;;;;;;6.93;4.65;;;9.00;99.90;;;;;;5034523;28;20115;-78
2023/12/29 02:00:12;;;;;;;8.80;8.07;;;9.00;99.90;;;;;;5035468;28;20053;-79
2023/12/29 02:02:39;;;;;;;7.32;6.63;;;9.00;99.90;;;;;;5033612;28;20045;-78
2023/12/29 02:05:05;;;;;;;7.57;6.22;;;9.10;99.90;;;;;;5018590;28;20080;-79
2023/12/29 02:07:32;;;;;;;8.38;6.65;;;9.10;99.90;;;;;;5034256;28;20057;-78
2023/12/29 02:09:59;;;;;;;5.28;4.78;;;9.10;99.90;;;;;;5034107;28;20100;-77
2023/12/29 02:12:25;;;;;;;7.78;7.00;;;9.00;99.90;;;;;;5035134;28;20056;-78
2023/12/29 02:14:52;;;;;;;7.40;6.22;;;9.00;99.90;;;;;;5035013;28;20049;-78
2023/12/29 02:17:30;;;;;;;7.93;6.30;;;9.00;99.90;;;;;;5035003;28;20115;-78
2023/12/29 02:19:56;;;;;;;8.43;5.55;;;9.10;99.90;;;;;;5034068;28;20103;-78
2023/12/29 02:22:22;;;;;;;9.25;8.27;;;9.10;99.90;;;;;;5035096;28;20046;-78
2023/12/29 02:24:49;;;;;;;6.38;4.95;;;9.10;99.90;;;;;;5034961;28;20077;-78
2023/12/29 02:27:40;;;;;;;6.10;5.25;;;9.10;99.90;;;;;;5034985;28;20049;-78
2023/12/29 02:30:22;;;;;;;11.73;11.00;;;9.10;99.90;;;;;;5011228;28;20128;-79
2023/12/29 02:32:49;;;;;;;10.52;6.65;;;9.20;99.90;;;;;;5034193;28;20057;-78
2023/12/29 02:35:19;;;;;;;7.85;6.68;;;9.30;99.90;;;;;;5035000;28;20394;-78
2023/12/29 02:37:47;;;;;;;9.25;4.35;;;9.30;99.90;;;;;;5034138;28;20046;-79
2023/12/29 02:40:14;;;;;;;8.57;8.07;;;9.30;99.90;;;;;;5033728;28;20045;-78
2023/12/29 02:42:46;;;;;;;18.88;17.80;;;9.30;99.90;;;;;;5033647;28;20046;-79
2023/12/29 02:45:11;;;;;;;11.93;10.88;;;9.40;99.90;;;;;;5034420;28;20140;-79
2023/12/29 02:47:37;;;;;;;5.43;3.88;;;9.50;99.90;;;;;;5034501;28;20454;-80
2023/12/29 02:50:03;;;;;;;6.63;5.55;;;9.50;99.90;;;;;;5034583;28;20041;-79
2023/12/29 02:52:29;;;;;;;5.95;5.13;;;9.50;99.90;;;;;;5016669;28;20046;-79
2023/12/29 02:54:54;;;;;;;5.50;4.47;;;9.50;99.90;;;;;;5033191;28;20046;-79
2023/12/29 02:57:20;;;;;;;9.30;8.40;;;9.50;99.90;;;;;;5034434;28;20053;-79
2023/12/29 02:59:45;;;;;;;13.18;12.40;;;9.60;99.90;;;;;;5033939;28;20045;-78
2023/12/29 03:02:11;;;;;;;6.70;6.20;;;9.70;99.90;;;;;;5033683;28;20099;-79
2023/12/29 03:04:37;;;;;;;5.00;3.53;;;9.70;99.90;;;;;;5033111;28;20037;-78
2023/12/29 03:07:03;;;;;;;7.32;6.18;;;9.70;99.90;;;;;;5034471;28;20049;-79
2023/12/29 03:09:28;;;;;;;5.20;4.75;;;9.70;99.90;;;;;;5034710;28;20493;-78
2023/12/29 03:11:54;;;;;;;5.43;3.53;;;9.70;99.90;;;;;;5033005;28;20049;-78
2023/12/29 03:14:20;;;;;;;7.88;7.07;;;9.70;99.90;;;;;;5033818;28;20049;-78
2023/12/29 03:16:45;;;;;;;7.55;4.30;;;9.70;99.90;;;;;;5033338;28;20088;-77
2023/12/29 03:19:11;;;;;;;8.85;7.20;;;9.80;99.90;;;;;;5034116;28;20051;-77
2023/12/29 03:21:37;;;;;;;10.35;9.55;;;9.80;99.90;;;;;;5034552;28;20462;-78
2023/12/29 03:24:02;;;;;;;5.97;5.15;;;9.80;99.90;;;;;;5033980;28;20060;-78
2023/12/29 03:26:28;;;;;;;5.07;3.08;;;9.90;99.90;;;;;;5033912;28;20050;-78
2023/12/29 03:28:55;;;;;;;6.78;3.75;;;9.90;99.90;;;;;;5032736;28;20057;-78
2023/12/29 03:31:21;;;;;;;4.85;4.15;;;9.90;99.90;;;;;;5032621;28;20513;-78
2023/12/29 03:33:46;;;;;;;5.03;2.88;;;9.90;99.90;;;;;;5032550;28;20053;-79
2023/12/29 03:36:12;;;;;;;5.25;4.07;;;9.80;99.90;;;;;;5032629;28;20044;-79
2023/12/29 03:38:38;;;;;;;5.05;3.33;;;9.80;99.90;;;;;;5033215;28;20374;-78
2023/12/29 03:41:04;;;;;;;5.25;3.88;;;9.80;99.90;;;;;;5034251;28;20052;-79
2023/12/29 03:43:29;;;;;;;5.55;3.10;;;9.80;99.90;;;;;;5032555;28;20077;-78
2023/12/29 03:45:55;;;;;;;8.27;2.92;;;9.70;99.90;;;;;;5032164;28;20057;-79
2023/12/29 03:48:21;;;;;;;5.65;2.80;;;9.70;99.90;;;;;;5000694;28;20605;-79
2023/12/29 03:50:47;;;;;;;7.40;3.55;;;9.70;99.90;;;;;;5033238;28;20490;-77
2023/12/29 03:53:14;;;;;;;5.72;3.13;;;9.70;99.90;;;;;;5034164;28;20050;-78
2023/12/29 03:55:41;;;;;;;3.92;2.65;;;9.70;99.90;;;;;;5032555;28;20073;-79
2023/12/29 03:58:06;;;;;;;4.38;3.10;;;9.70;99.90;;;;;;5032559;28;20045;-79
2023/12/29 04:00:32;;;;;;;10.18;9.38;;;9.70;99.90;;;;;;5032246;28;20051;-77
2023/12/29 04:02:58;;;;;;;17.75;16.45;;;9.70;99.90;;;;;;5033743;28;20489;-79
2023/12/29 04:05:23;;;;;;;5.60;3.22;;;9.60;99.90;;;;;;5034050;28;20049;-77
2023/12/29 04:07:49;;;;;;;6.78;6.28;;;9.60;99.90;;;;;;5033480;28;20049;-79
2023/12/29 04:10:15;;;;;;;9.52;4.25;;;9.60;99.90;;;;;;5016752;28;20163;-78
2023/12/29 04:12:40;;;;;;;6.70;3.00;;;9.60;99.90;;;;;;5033206;28;20044;-79
2023/12/29 04:15:07;;;;;;;5.68;4.30;;;9.60;99.90;;;;;;5032425;28;20084;-78
2023/12/29 04:17:32;;;;;;;4.60;4.25;;;9.60;99.90;;;;;;5032289;28;20479;-79
2023/12/29 04:19:58;;;;;;;6.03;3.28;;;9.60;99.90;;;;;;5033130;28;20132;-80
2023/12/29 04:22:24;;;;;;;10.80;3.65;;;9.60;99.90;;;;;;5016197;28;20057;-79
2023/12/29 04:24:49;;;;;;;6.65;3.80;;;9.60;99.90;;;;;;5016420;28;20041;-79
2023/12/29 04:27:15;;;;;;;6.32;3.75;;;9.60;99.90;;;;;;5037268;28;20053;-78
2023/12/29 04:29:41;;;;;;;4.97;3.35;;;9.60;99.90;;;;;;5019835;28;20128;-79
2023/12/29 04:32:06;;;;;;;9.10;3.60;;;9.60;99.90;;;;;;5037679;28;20084;-78
2023/12/29 04:34:32;;;;;;;6.35;4.32;;;9.60;99.90;;;;;;5035813;28;20126;-78
2023/12/29 04:36:58;;;;;;;9.30;4.68;;;9.60;99.90;;;;;;5037129;28;20095;-78
2023/12/29 04:39:24;;;;;;;12.38;4.63;;;9.60;99.90;;;;;;5035820;28;20045;-78
2023/12/29 04:41:50;;;;;;;6.38;3.15;;;9.70;99.90;;;;;;5036836;28;20420;-77
2023/12/29 04:44:16;;;;;;;5.55;3.63;;;9.60;99.90;;;;;;5036336;28;20087;-79
2023/12/29 04:46:42;;;;;;;5.80;3.00;;;9.60;99.90;;;;;;5037472;28;20057;-79
2023/12/29 04:49:08;;;;;;;6.68;2.72;;;9.60;99.90;;;;;;5002928;28;20486;-78
2023/12/29 04:51:34;;;;;;;7.28;3.42;;;9.60;99.90;;;;;;5019176;28;20049;-78
2023/12/29 04:53:59;;;;;;;5.95;3.33;;;9.60;99.90;;;;;;5035750;28;20056;-77
2023/12/29 04:56:25;;;;;;;7.82;4.25;;;9.50;99.90;;;;;;5035782;28;20393;-78
2023/12/29 04:58:51;;;;;;;12.25;4.72;;;9.50;99.90;;;;;;5035519;28;20041;-78
2023/12/29 05:01:17;;;;;;;9.90;3.53;;;9.50;99.90;;;;;;5035675;28;20440;-78
2023/12/29 05:03:43;;;;;;;8.40;5.75;;;9.50;99.90;;;;;;5019974;28;20120;-78
2023/12/29 05:06:09;;;;;;;7.32;3.20;;;9.50;99.90;;;;;;5035549;28;20041;-78
2023/12/29 05:08:34;;;;;;;11.45;10.65;;;9.50;99.90;;;;;;5035791;28;20049;-77
2023/12/29 05:11:00;;;;;;;8.88;3.15;;;9.50;99.90;;;;;;5036218;28;20493;-78
2023/12/29 05:13:26;;;;;;;8.00;2.83;;;9.60;99.90;;;;;;5035239;28;20056;-78
2023/12/29 05:15:52;;;;;;;8.23;2.80;;;9.60;99.90;;;;;;5034898;28;20124;-78
2023/12/29 05:18:17;;;;;;;7.47;2.88;;;9.60;99.90;;;;;;5036084;28;20049;-78
2023/12/29 05:20:43;;;;;;;7.18;3.63;;;9.50;99.90;;;;;;5035074;28;20132;-77
2023/12/29 05:23:09;;;;;;;8.35;3.47;;;9.40;99.90;;;;;;5035467;28;20049;-77
2023/12/29 05:25:34;;;;;;;10.27;3.08;;;9.50;99.90;;;;;;5035064;28;20137;-79
2023/12/29 05:28:00;;;;;;;12.77;4.28;;;9.50;99.90;;;;;;5035116;28;20430;-79
2023/12/29 05:30:31;;;;;;;8.63;3.67;;;9.50;99.90;;;;;;5035168;28;20049;-78
2023/12/29 05:32:57;;;;;;;9.85;3.50;;;9.40;99.90;;;;;;5018294;28;20045;-78
2023/12/29 05:35:22;;;;;;;6.28;3.20;;;9.40;99.90;;;;;;5034844;28;20041;-79
2023/12/29 05:37:49;;;;;;;6.65;3.20;;;9.40;99.90;;;;;;5033990;28;20053;-78
2023/12/29 05:40:15;;;;;;;6.78;3.10;;;9.40;99.90;;;;;;5035874;28;20053;-80
2023/12/29 05:42:41;;;;;;;6.35;3.17;;;9.40;99.90;;;;;;5034910;28;20501;-78
2023/12/29 05:45:07;;;;;;;7.03;2.40;;;9.40;99.90;;;;;;5034552;28;20054;-78
2023/12/29 05:47:33;;;;;;;10.98;3.35;;;9.50;99.90;;;;;;5034738;28;20053;-79
2023/12/29 05:49:58;;;;;;;7.13;4.50;;;9.50;99.90;;;;;;5034790;28;20049;-78
2023/12/29 05:52:24;;;;;;;5.97;3.15;;;9.40;99.90;;;;;;5035676;28;20046;-78
2023/12/29 05:54:50;;;;;;;7.43;3.10;;;9.50;99.90;;;;;;5035280;28;20136;-78
2023/12/29 05:57:16;;;;;;;8.48;3.30;;;9.40;99.90;;;;;;5035575;28;20053;-78
2023/12/29 05:59:41;;;;;;;5.75;3.00;;;9.40;99.90;;;;;;5018896;28;20041;-78
2023/12/29 06:02:07;;;;;;;8.70;3.50;;;9.50;99.90;;;;;;5034227;28;20069;-78
2023/12/29 06:04:33;;;;;;;8.90;3.90;;;9.40;99.90;;;;;;5035300;28;20081;-78
2023/12/29 06:06:58;;;;;;;7.00;3.22;;;9.40;99.90;;;;;;5035205;28;20370;-77
2023/12/29 06:09:24;;;;;;;14.55;12.82;;;9.50;99.90;;;;;;5035423;28;20057;-78
2023/12/29 06:11:50;;;;;;;6.38;4.13;;;9.40;99.90;;;;;;5035334;28;20433;-78
2023/12/29 06:14:15;;;;;;;13.25;5.70;;;9.40;99.90;;;;;;5035207;28;20049;-78
2023/12/29 06:16:41;;;;;;;9.98;4.70;;;9.40;99.90;;;;;;5034821;28;20379;-78
2023/12/29 06:19:08;;;;;;;7.78;3.60;;;9.40;99.90;;;;;;5034158;28;20038;-78
2023/12/29 06:21:40;;;;;;;8.52;4.07;;;9.40;99.90;;;;;;5017599;28;20060;-77
2023/12/29 06:24:05;;;;;;;6.18;3.83;;;9.40;99.90;;;;;;5035148;28;20046;-78
2023/12/29 06:26:31;;;;;;;11.18;3.90;;;9.40;99.90;;;;;;5033775;28;20098;-77
2023/12/29 06:28:57;;;;;;;9.43;5.82;;;9.40;99.90;;;;;;5035309;28;20061;-78
2023/12/29 06:31:22;;;;;;;16.48;4.03;;;9.50;99.90;;;;;;5033722;28;20085;-78
2023/12/29 06:33:48;;;;;;;8.07;5.28;;;9.50;99.90;;;;;;5033931;28;20088;-78
2023/12/29 06:36:14;;;;;;;9.20;5.22;;;9.50;99.90;;;;;;5034903;28;20478;-77
2023/12/29 06:38:40;;;;;;;12.32;5.38;;;9.60;99.90;;;;;;5034861;28;20136;-79
2023/12/29 06:41:05;;;;;;;11.27;4.47;;;9.50;99.90;;;;;;5035165;28;20057;-78
2023/12/29 06:43:31;;;;;;;13.00;5.03;;;9.50;99.90;;;;;;5034521;28;20041;-78
2023/12/29 06:45:57;;;;;;;5.43;4.05;;;9.50;99.90;;;;;;5034860;28;20092;-78
2023/12/29 06:48:23;;;;;;;8.48;4.30;;;9.40;99.90;;;;;;5033597;28;20045;-79
2023/12/29 06:50:48;;;;;;;8.00;4.60;;;9.40;99.90;;;;;;5034604;28;20045;-78
2023/12/29 06:53:14;;;;;;;12.00;6.45;;;9.30;99.90;;;;;;5034557;28;20057;-78
2023/12/29 06:55:40;;;;;;;9.57;7.35;;;9.20;99.90;;;;;;5032849;28;20056;-79
2023/12/29 06:58:06;;;;;;;11.15;5.20;;;9.20;99.90;;;;;;5035024;28;20060;-79
2023/12/29 07:00:31;;;;;;;9.82;4.93;;;9.10;99.90;;;;;;5033692;28;20045;-79
2023/12/29 07:02:57;;;;;;;10.68;4.00;;;9.00;99.90;;;;;;5034338;28;20136;-78
2023/12/29 07:05:22;;;;;;;13.30;5.10;;;9.00;99.90;;;;;;5016860;28;20119;-79
2023/12/29 07:07:48;;;;;;;7.43;6.57;;;9.00;99.90;;;;;;5034040;28;20052;-77
2023/12/29 07:10:14;;;;;;;12.13;7.28;;;9.00;99.90;;;;;;5034004;28;20466;-78
2023/12/29 07:12:43;;;;;;;8.43;6.30;;;9.00;99.90;;;;;;5033526;28;20050;-77
2023/12/29 07:15:09;;;;;;;12.95;8.55;;;9.00;99.90;;;;;;5033405;28;20049;-80
2023/12/29 07:17:35;;;;;;;13.40;7.05;;;9.00;99.90;;;;;;5033027;28;20045;-82
2023/12/29 07:20:01;;;;;;;12.75;8.30;;;9.00;99.90;;;;;;5016129;28;20128;-83
2023/12/29 07:22:26;;;;;;;12.38;7.03;;;9.00;99.90;;;;;;5016765;28;20100;-83
2023/12/29 07:24:53;;;;;;;10.07;5.57;;;9.00;99.90;;;;;;5032970;28;20128;-85
2023/12/29 07:27:18;;;;;;;12.73;11.38;;;8.90;99.90;;;;;;5000165;28;20135;-84
2023/12/29 07:29:44;;;;;;;9.25;5.47;;;8.80;99.90;;;;;;5000207;28;20119;-84
2023/12/29 07:32:10;;;;;;;11.23;6.05;;;8.60;99.90;;;;;;5016841;28;20049;-84
2023/12/29 07:34:35;;;;;;;8.48;4.57;;;8.40;99.90;;;;;;5015847;28;20576;-85
2023/12/29 07:37:01;;;;;;;6.63;4.07;;;8.30;99.90;;;;;;5016804;28;20067;-86
2023/12/29 07:39:27;;;;;;;10.30;5.45;;;8.30;99.90;;;;;;5016238;28;20049;-86
2023/12/29 07:41:53;;;;;;;12.02;5.57;;;8.20;99.90;;;;;;5000190;28;20052;-84
2023/12/29 07:44:19;;;;;;;10.10;5.97;;;8.20;99.90;;;;;;5000091;28;20088;-85
2023/12/29 07:46:45;;;;;;;15.25;5.25;;;8.20;99.90;;;;;;5015497;28;20063;-85
2023/12/29 07:49:11;;;;;;;13.38;5.50;;;8.30;99.90;;;;;;5015869;28;20057;-85
2023/12/29 07:51:40;;;;;;;13.80;6.00;;;8.40;99.90;;;;;;5032642;28;20057;-81
2023/12/29 07:54:07;;;;;;;12.98;5.82;;;8.40;99.90;;;;;;5032484;28;20046;-83
2023/12/29 07:56:33;;;;;;;13.65;10.32;;;8.50;99.90;;;;;;5032720;28;20056;-83
2023/12/29 07:58:59;;;;;;;15.63;14.27;;;8.60;99.90;;;;;;5015877;28;20049;-82
2023/12/29 08:01:25;;;;;;;10.10;8.43;;;8.60;99.90;;;;;;5031706;28;20049;-83
2023/12/29 08:03:51;;;;;;;10.98;6.53;;;8.60;99.90;;;;;;5031950;28;20045;-81
2023/12/29 08:06:17;;;;;;;10.70;5.35;;;8.60;99.90;;;;;;4999451;28;20041;-85
2023/12/29 08:08:42;;;;;;;13.95;5.82;;;8.50;99.90;;;;;;5031712;28;20064;-85
2023/12/29 08:11:17;;;;;;;10.55;8.30;;;8.50;99.90;;;;;;4999099;28;20100;-83
2023/12/29 08:13:49;;;;;;;10.38;5.38;;;8.60;99.90;;;;;;5032018;28;20041;-85
2023/12/29 08:16:17;;;;;;;9.95;5.20;;;8.70;99.90;;;;;;5015286;28;20046;-83
2023/12/29 08:18:43;;;;;;;12.35;6.50;;;8.60;99.90;;;;;;5015627;28;20060;-81
2023/12/29 08:21:08;;;;;;;9.70;4.25;;;8.60;99.90;;;;;;5016582;28;20140;-82
2023/12/29 08:23:34;;;;;;;5.78;4.32;;;8.60;99.90;;;;;;5015806;28;20474;-82
2023/12/29 08:26:02;;;;;;;8.18;4.70;;;8.60;99.90;;;;;;5015684;28;20049;-82
2023/12/29 08:28:28;;;;;;;9.05;3.95;;;8.70;99.90;;;;;;5032003;28;20060;-85
2023/12/29 08:30:54;;;;;;;6.97;5.22;;;8.80;99.90;;;;;;5015734;28;20041;-82
2023/12/29 08:33:19;;;;;;;9.50;5.15;;;8.80;99.90;;;;;;5015740;28;20085;-81
2023/12/29 08:35:45;;;;;;;10.82;4.13;;;8.90;99.90;;;;;;4999113;28;20230;-83
2023/12/29 08:38:11;;;;;;;11.15;4.57;;;8.90;99.90;;;;;;5015721;28;20182;-84
2023/12/29 08:40:37;;;;;;;8.82;5.97;;;9.00;99.90;;;;;;5016522;28;20042;-79
2023/12/29 08:43:03;;;;;;;9.25;4.55;;;8.90;99.90;;;;;;5031868;28;20106;-79
2023/12/29 08:45:29;;;;;;;8.20;5.85;;;8.90;99.90;;;;;;5031812;28;20557;-78
2023/12/29 08:47:55;;;;;;;13.13;4.80;;;8.90;99.90;;;;;;5031974;28;20184;-79
2023/12/29 08:50:21;;;;;;;10.25;6.20;;;8.90;99.90;;;;;;5032672;28;20073;-79
2023/12/29 08:52:47;;;;;;;7.57;4.95;;;8.90;99.90;;;;;;5016356;28;20060;-79
2023/12/29 08:55:13;;;;;;;13.00;4.68;;;8.90;99.90;;;;;;5031669;28;20049;-79
2023/12/29 08:57:38;;;;;;;13.15;12.15;;;9.00;99.90;;;;;;5031982;28;20168;-78
2023/12/29 09:00:05;;;;;;;10.50;9.05;;;9.00;99.90;;;;;;5032811;28;20041;-78
2023/12/29 09:02:30;;;;;;;6.40;5.47;;;8.80;99.90;;;;;;5032736;28;20041;-77
2023/12/29 09:04:59;;;;;;;8.75;4.20;;;8.60;99.90;;;;;;5032693;28;20041;-77
2023/12/29 09:07:24;;;;;;;8.57;4.72;;;8.40;99.90;;;;;;5031671;28;20553;-77
2023/12/29 09:09:51;;;;;;;9.02;4.40;;;8.30;99.90;;;;;;5032825;28;20088;-79
2023/12/29 09:12:16;;;;;;;10.77;5.22;;;8.20;99.90;;;;;;5018175;28;20148;-79
2023/12/29 09:14:42;;;;;;;6.25;5.68;;;8.20;99.90;;;;;;5018803;28;20211;-80
2023/12/29 09:17:08;;;;;;;11.02;7.60;;;8.30;99.90;;;;;;5035841;28;20088;-79
2023/12/29 09:19:33;;;;;;;10.75;6.70;;;8.50;99.90;;;;;;5019045;28;20052;-80
2023/12/29 09:21:59;;;;;;;13.05;6.57;;;8.60;99.90;;;;;;5035733;28;20433;-80
2023/12/29 09:24:25;;;;;;;7.70;5.55;;;8.70;99.90;;;;;;5035602;28;20527;-77
2023/12/29 09:26:52;;;;;;;4.82;4.43;;;8.80;99.90;;;;;;5036059;28;20045;-78
2023/12/29 09:29:17;;;;;;;8.57;4.95;;;8.90;99.90;;;;;;5036332;28;20481;-78
2023/12/29 09:31:43;;;;;;;8.70;4.68;;;8.90;99.90;;;;;;5035257;28;20132;-79
2023/12/29 09:34:09;;;;;;;6.00;4.97;;;9.00;99.90;;;;;;5034799;28;20053;-79
2023/12/29 09:36:36;;;;;;;6.10;5.45;;;9.00;99.90;;;;;;5034964;28;20050;-78
2023/12/29 09:39:02;;;;;;;7.93;5.63;;;9.10;99.90;;;;;;5019337;28;20089;-78
2023/12/29 09:41:31;;;;;;;6.32;4.32;;;9.20;99.90;;;;;;5035820;28;20496;-79
2023/12/29 09:43:58;;;;;;;7.28;4.70;;;9.30;99.90;;;;;;5035062;28;20060;-79
2023/12/29 09:46:25;;;;;;;6.35;5.50;;;9.30;99.90;;;;;;5035077;28;20057;-77
2023/12/29 09:48:54;;;;;;;8.35;4.13;;;9.30;99.90;;;;;;5018130;28;20168;-79
2023/12/29 09:51:23;;;;;;;6.50;5.57;;;9.30;99.90;;;;;;5034936;28;20057;-79
2023/12/29 09:53:49;;;;;;;7.75;4.68;;;9.20;99.90;;;;;;5034646;28;20492;-79
2023/12/29 09:56:16;;;;;;;5.53;4.55;;;9.20;99.90;;;;;;5034329;28;20056;-78
2023/12/29 09:58:43;;;;;;;5.07;3.78;;;9.20;99.90;;;;;;5034392;28;20459;-78
2023/12/29 10:01:09;;;;;;;7.85;4.38;;;9.20;99.90;;;;;;5034800;28;20060;-78
2023/12/29 10:03:34;;;;;;;5.32;4.70;;;9.20;99.90;;;;;;5034837;28;20421;-78
2023/12/29 10:06:03;;;;;;;6.93;4.43;;;9.30;99.90;;;;;;5034438;28;20068;-82
2023/12/29 10:08:32;;;;;;;6.75;4.10;;;9.30;99.90;;;;;;5001800;28;20053;-81
2023/12/29 10:11:00;;;;;;;7.00;4.60;;;9.40;99.90;;;;;;5018288;28;20060;-77
2023/12/29 10:13:28;;;;;;;5.70;3.97;;;9.40;99.90;;;;;;5033939;28;20060;-79
2023/12/29 10:16:11;;;;;;;6.03;5.53;;;9.40;99.90;;;;;;5033889;28;20509;-81
2023/12/29 10:18:57;;;;;;;6.78;4.65;;;9.30;99.90;;;;;;5033912;28;20045;-77
2023/12/29 10:21:41;;;;;;;4.60;4.17;;;9.30;99.90;;;;;;5033617;28;20088;-79
2023/12/29 10:24:19;;;;;;;7.63;6.38;;;9.20;99.90;;;;;;5034471;28;20045;-78
2023/12/29 10:26:45;;;;;;;4.65;4.25;;;9.20;99.90;;;;;;5017612;28;20168;-78
2023/12/29 10:29:12;;;;;;;5.57;4.78;;;9.20;99.90;;;;;;5034292;28;20065;-78
2023/12/29 10:31:38;;;;;;;3.67;3.28;;;9.20;99.90;;;;;;5033584;28;20076;-79
2023/12/29 10:34:31;;;;;;;7.75;7.35;;;9.00;99.90;;;;;;5001188;28;20041;-79
2023/12/29 10:37:09;;;;;;;6.28;4.80;;;8.90;99.90;;;;;;5033438;28;20053;-78
2023/12/29 10:39:37;;;;;;;7.43;6.85;;;8.90;99.90;;;;;;5034708;28;20081;-79
2023/12/29 10:42:07;;;;;;;8.15;7.75;;;8.70;99.90;;;;;;5034768;28;20449;-80
2023/12/29 10:44:37;;;;;;;4.65;3.92;;;8.70;99.90;;;;;;5033832;28;20057;-79
2023/12/29 10:47:10;;;;;;;5.97;5.47;;;8.70;99.90;;;;;;5035402;28;20104;-78
2023/12/29 10:49:35;;;;;;;3.65;2.70;;;8.50;99.90;;;;;;5017239;28;20057;-78
2023/12/29 10:52:14;;;;;;;3.15;2.85;;;8.40;99.90;;;;;;5034614;28;20095;-77
2023/12/29 10:54:42;;;;;;;2.35;2.15;;;8.20;99.90;;;;;;5033397;28;20045;-79
2023/12/29 10:57:11;;;;;;;2.70;2.30;;;8.10;99.90;;;;;;5035058;28;20129;-77
2023/12/29 10:59:37;;;;;;;3.85;3.55;;;8.00;99.90;;;;;;5033104;28;20049;-78
2023/12/29 11:02:03;;;;;;;3.00;2.58;;;8.00;99.90;;;;;;5033420;28;20112;-77
2023/12/29 11:04:30;;;;;;;5.05;4.15;;;8.00;99.90;;;;;;5033411;28;20127;-79
2023/12/29 11:06:56;;;;;;;4.07;2.90;;;8.00;99.90;;;;;;5033576;28;20131;-77
2023/12/29 11:09:33;;;;;;;3.30;3.00;;;8.10;99.90;;;;;;5034273;28;20129;-79
2023/12/29 11:12:01;;;;;;;4.85;2.75;;;8.20;99.90;;;;;;5034040;28;20438;-79
2023/12/29 11:14:30;;;;;;;3.40;3.10;;;8.40;99.90;;;;;;5033030;28;20498;-78
2023/12/29 11:16:56;;;;;;;4.15;3.85;;;8.50;99.90;;;;;;5033125;28;20140;-77
2023/12/29 11:19:22;;;;;;;4.63;2.90;;;8.70;99.90;;;;;;5033948;28;20057;-77
2023/12/29 11:21:57;;;;;;;5.18;3.40;;;8.90;99.90;;;;;;5033314;28;20390;-76
2023/12/29 11:24:24;;;;;;;4.10;3.70;;;9.00;99.90;;;;;;5034897;28;20417;-77
2023/12/29 11:26:50;;;;;;;5.30;2.70;;;9.00;99.90;;;;;;5034523;28;20072;-78
2023/12/29 11:29:19;;;;;;;5.40;2.88;;;9.10;99.90;;;;;;5032794;28;20272;-78
2023/12/29 11:31:48;;;;;;;5.15;3.70;;;9.10;99.90;;;;;;5016128;28;20398;-78
2023/12/29 11:34:37;;;;;;;5.15;3.28;;;9.10;99.90;;;;;;5032537;28;20049;-77
2023/12/29 11:37:30;;;;;;;3.35;2.63;;;9.20;99.90;;;;;;5032778;28;20524;-78
2023/12/29 11:40:24;;;;;;;4.03;3.03;;;9.20;99.90;;;;;;5033149;28;20093;-76
2023/12/29 11:42:54;;;;;;;6.45;3.55;;;9.20;99.90;;;;;;5032643;28;20049;-77
2023/12/29 11:45:35;;;;;;;4.50;2.85;;;9.20;99.90;;;;;;5033529;28;20057;-77
2023/12/29 11:48:02;;;;;;;4.80;3.25;;;9.20;99.90;;;;;;5016493;28;20067;-79
2023/12/29 11:50:33;;;;;;;4.45;3.45;;;9.20;99.90;;;;;;5033549;28;20053;-78
2023/12/29 11:52:59;;;;;;;8.35;3.22;;;9.20;99.90;;;;;;4999101;28;20502;-77
2023/12/29 11:55:35;;;;;;;5.88;2.67;;;9.30;99.90;;;;;;5034073;28;20084;-77
2023/12/29 11:58:02;;;;;;;7.00;3.20;;;9.30;99.90;;;;;;5033608;28;20068;-77
2023/12/29 12:00:44;;;;;;;6.50;3.50;;;9.30;99.90;;;;;;5032401;28;20284;-77
2023/12/29 12:03:20;;;;;;;5.78;3.13;;;9.30;99.90;;;;;;5032483;28;20041;-76
2023/12/29 12:05:48;;;;;;;4.82;3.05;;;9.20;99.90;;;;;;5033602;28;20521;-77
2023/12/29 12:08:39;;;;;;;5.72;3.17;;;9.30;99.90;;;;;;5033412;28;20042;-78
2023/12/29 12:11:31;;;;;;;5.32;2.90;;;9.30;99.90;;;;;;5032670;28;20053;-79
2023/12/29 12:13:57;;;;;;;5.45;3.05;;;9.30;99.90;;;;;;5032341;28;20049;-77
2023/12/29 12:16:45;;;;;;;7.82;3.33;;;9.30;99.90;;;;;;5031984;28;20456;-77
2023/12/29 12:19:12;;;;;;;5.60;3.22;;;9.40;99.90;;;;;;5033235;28;20053;-78
2023/12/29 12:21:38;;;;;;;7.55;3.08;;;9.40;99.90;;;;;;5033365;28;20050;-78
2023/12/29 12:24:04;;;;;;;4.13;2.95;;;9.40;99.90;;;;;;5033200;28;20050;-77
2023/12/29 12:26:37;;;;;;;6.55;6.10;;;9.40;99.90;;;;;;5032542;28;20107;-76
2023/12/29 12:29:04;;;;;;;3.47;3.00;;;9.50;99.90;;;;;;5033257;28;20080;-77
2023/12/29 12:31:29;;;;;;;9.70;4.93;;;9.50;99.90;;;;;;5032259;28;20045;-76
2023/12/29 12:34:02;;;;;;;6.60;3.17;;;9.60;99.90;;;;;;5031957;28;20131;-77
2023/12/29 12:36:28;;;;;;;9.68;4.22;;;9.60;99.90;;;;;;5015686;28;20049;-78
2023/12/29 12:38:57;;;;;;;4.75;2.78;;;9.60;99.90;;;;;;5031836;28;20072;-78
2023/12/29 12:41:26;;;;;;;6.90;3.35;;;9.60;99.90;;;;;;5032122;28;20084;-77
2023/12/29 12:44:01;;;;;;;4.10;2.72;;;9.60;99.90;;;;;;5032894;28;20057;-77
2023/12/29 12:46:27;;;;;;;8.50;2.92;;;9.70;99.90;;;;;;5016664;28;20053;-77
2023/12/29 12:48:55;;;;;;;7.30;3.33;;;9.70;99.90;;;;;;5036296;28;20054;-77
2023/12/29 12:51:21;;;;;;;4.93;2.28;;;9.70;99.90;;;;;;5035794;28;20475;-77
2023/12/29 12:53:49;;;;;;;5.18;2.47;;;9.70;99.90;;;;;;5036772;28;20056;-77